Time;durP1;ratioP1;P1;durP2;ratioP2;P2;SDS_P1;SDS_P2;PMS_P1;PMS_P2;Temp;Humidity;BMP_temperature;BMP_pressure;BME280_temperature;BME280_humidity;BME280_pressure;Samples;Min_cycle;Max_cycle;Signal;HPM_P1;HPM_P2
2021/11/26 00:00:43;;;;;;;30.33;17.53;;;7.80;99.90;;;;;;5111354;28;20806;-50
2021/11/26 00:03:10;;;;;;;23.97;14.90;;;7.90;99.90;;;;;;5111242;28;20927;-50
2021/11/26 00:05:38;;;;;;;24.57;15.20;;;8.10;99.90;;;;;;5111475;28;20461;-49
2021/11/26 00:08:06;;;;;;;26.20;14.93;;;7.90;99.90;;;;;;5093079;28;21008;-51
2021/11/26 00:10:33;;;;;;;26.43;16.60;;;7.90;99.90;;;;;;5093467;28;20500;-51
2021/11/26 00:13:02;;;;;;;33.07;21.50;;;8.00;99.90;;;;;;5093317;28;20426;-51
2021/11/26 00:15:40;;;;;;;26.97;15.73;;;7.90;99.90;;;;;;5111969;28;20516;-49
2021/11/26 00:18:10;;;;;;;24.30;15.93;;;8.00;99.90;;;;;;5111129;28;20438;-51
2021/11/26 00:20:40;;;;;;;25.60;16.40;;;7.90;99.90;;;;;;5093118;28;20450;-50
2021/11/26 00:23:09;;;;;;;26.30;15.63;;;7.80;99.90;;;;;;5111600;28;20459;-50
2021/11/26 00:25:36;;;;;;;25.27;15.97;;;7.80;99.90;;;;;;5111693;28;20465;-51
2021/11/26 00:28:04;;;;;;;26.47;15.70;;;7.90;99.90;;;;;;5111089;28;20488;-50
2021/11/26 00:30:31;;;;;;;26.93;16.87;;;7.80;99.90;;;;;;5110147;28;20430;-50
2021/11/26 00:32:58;;;;;;;23.10;14.20;;;7.80;99.90;;;;;;5109543;28;20979;-50
2021/11/26 00:35:25;;;;;;;23.40;15.33;;;8.00;99.90;;;;;;5110086;28;20516;-50
2021/11/26 00:37:54;;;;;;;18.60;13.40;;;7.90;99.90;;;;;;5113335;28;20474;-50
2021/11/26 00:40:21;;;;;;;20.47;14.13;;;7.90;99.90;;;;;;5115124;28;20435;-50
2021/11/26 00:42:48;;;;;;;28.13;15.77;;;8.00;99.90;;;;;;5113643;28;20830;-50
2021/11/26 00:45:18;;;;;;;21.17;13.87;;;7.80;99.90;;;;;;5113328;28;20481;-50
2021/11/26 00:47:47;;;;;;;25.43;14.47;;;7.30;99.90;;;;;;5114555;28;20435;-50
2021/11/26 00:50:16;;;;;;;26.93;14.47;;;7.80;99.90;;;;;;5113445;28;20475;-50
2021/11/26 00:52:43;;;;;;;25.67;14.57;;;7.80;99.90;;;;;;5115284;28;20907;-50
2021/11/26 00:55:13;;;;;;;24.10;15.50;;;7.90;99.90;;;;;;5113359;28;20510;-50
2021/11/26 00:57:40;;;;;;;22.93;13.47;;;7.80;99.90;;;;;;5113116;28;20447;-50
2021/11/26 01:00:10;;;;;;;19.10;14.13;;;7.70;99.90;;;;;;5113219;28;20858;-51
2021/11/26 01:02:42;;;;;;;24.87;14.23;;;7.80;99.90;;;;;;5114303;28;20511;-50
2021/11/26 01:05:10;;;;;;;19.83;12.77;;;7.90;99.90;;;;;;5114287;28;20485;-50
2021/11/26 01:07:38;;;;;;;23.93;15.33;;;7.90;99.90;;;;;;5096136;28;20516;-50
2021/11/26 01:10:07;;;;;;;19.13;12.80;;;7.70;99.90;;;;;;5114536;28;20446;-51
2021/11/26 01:12:35;;;;;;;20.97;13.20;;;7.60;99.90;;;;;;5114457;28;20783;-51
2021/11/26 01:15:05;;;;;;;20.83;14.07;;;7.70;99.90;;;;;;5114393;28;20493;-51
2021/11/26 01:17:33;;;;;;;19.43;12.93;;;7.60;99.90;;;;;;5114364;28;20417;-50
2021/11/26 01:20:00;;;;;;;22.30;13.87;;;7.80;99.90;;;;;;5113529;28;20488;-49
2021/11/26 01:22:27;;;;;;;23.47;13.37;;;7.70;99.90;;;;;;5095639;28;20425;-51
2021/11/26 01:24:54;;;;;;;23.87;14.27;;;7.60;99.90;;;;;;5113904;28;20499;-49
2021/11/26 01:27:21;;;;;;;21.80;13.83;;;7.80;99.90;;;;;;5114023;28;20458;-50
2021/11/26 01:29:50;;;;;;;24.83;13.63;;;7.50;99.90;;;;;;5112486;28;20500;-49
2021/11/26 01:32:17;;;;;;;21.67;13.27;;;7.50;99.90;;;;;;5114149;28;20419;-49
2021/11/26 01:34:44;;;;;;;21.00;12.83;;;7.60;99.90;;;;;;5113029;28;20474;-49
2021/11/26 01:37:11;;;;;;;19.40;12.90;;;7.50;99.90;;;;;;5112695;28;20495;-50
2021/11/26 01:39:38;;;;;;;20.10;13.70;;;7.50;99.90;;;;;;5112142;28;20951;-50
2021/11/26 01:42:05;;;;;;;24.10;14.17;;;7.60;99.90;;;;;;5112428;28;20478;-50
2021/11/26 01:44:35;;;;;;;26.40;14.20;;;7.70;99.90;;;;;;5112691;28;20482;-50
2021/11/26 01:47:04;;;;;;;19.10;12.97;;;7.70;99.90;;;;;;5112109;28;20421;-50
2021/11/26 01:49:31;;;;;;;24.67;13.47;;;7.60;99.90;;;;;;5113420;28;20947;-50
2021/11/26 01:51:58;;;;;;;25.27;13.73;;;7.80;99.90;;;;;;5112972;28;20451;-50
2021/11/26 01:54:25;;;;;;;21.27;12.90;;;7.50;99.90;;;;;;5112894;28;20857;-50
2021/11/26 01:56:53;;;;;;;17.97;13.97;;;7.50;99.90;;;;;;5112649;28;20485;-50
2021/11/26 01:59:20;;;;;;;19.30;12.27;;;7.50;99.90;;;;;;5112367;28;20449;-50
2021/11/26 02:01:49;;;;;;;19.77;12.93;;;7.60;99.90;;;;;;5112085;28;20770;-50
2021/11/26 02:04:18;;;;;;;25.50;14.73;;;8.00;99.90;;;;;;5113719;28;20545;-50
2021/11/26 02:06:45;;;;;;;23.30;14.13;;;7.70;99.90;;;;;;5113690;28;20472;-51
2021/11/26 02:09:14;;;;;;;28.00;13.60;;;7.60;99.90;;;;;;5113442;28;20584;-50
2021/11/26 02:11:44;;;;;;;25.03;13.60;;;7.90;99.90;;;;;;5095369;28;20451;-50
2021/11/26 02:14:15;;;;;;;29.17;13.50;;;7.70;99.90;;;;;;5095044;28;20430;-50
2021/11/26 02:16:44;;;;;;;24.20;11.50;;;7.70;99.90;;;;;;5095077;28;20946;-50
2021/11/26 02:19:12;;;;;;;20.83;12.30;;;7.90;99.90;;;;;;5112986;28;20475;-50
2021/11/26 02:21:42;;;;;;;20.43;13.23;;;7.80;99.90;;;;;;5113610;28;20517;-50
2021/11/26 02:24:09;;;;;;;18.97;12.70;;;7.70;99.90;;;;;;5095056;28;20528;-51
2021/11/26 02:26:37;;;;;;;21.87;13.67;;;7.90;99.90;;;;;;5107832;28;20479;-50
2021/11/26 02:29:04;;;;;;;21.23;13.00;;;7.80;99.90;;;;;;5111759;28;20470;-50
2021/11/26 02:31:32;;;;;;;22.43;11.60;;;7.70;99.90;;;;;;5113477;28;20864;-50
2021/11/26 02:33:59;;;;;;;20.83;11.00;;;7.80;99.90;;;;;;5111904;28;20430;-50
2021/11/26 02:36:26;;;;;;;17.50;12.50;;;7.70;99.90;;;;;;5112473;28;20443;-49
2021/11/26 02:38:55;;;;;;;20.37;12.60;;;7.70;99.90;;;;;;5113267;28;20506;-50
2021/11/26 02:41:23;;;;;;;21.13;12.70;;;7.70;99.90;;;;;;5113392;28;20827;-50
2021/11/26 02:43:50;;;;;;;21.80;12.60;;;7.60;99.90;;;;;;5113410;28;20438;-50
2021/11/26 02:46:18;;;;;;;22.70;13.20;;;7.60;99.90;;;;;;5113205;28;21009;-50
2021/11/26 02:48:45;;;;;;;23.60;13.90;;;7.60;99.90;;;;;;5113326;28;20455;-50
2021/11/26 02:51:15;;;;;;;17.00;11.97;;;7.80;99.90;;;;;;5113112;28;20410;-50
2021/11/26 02:53:42;;;;;;;26.07;13.70;;;7.90;99.90;;;;;;5112052;28;20847;-50
2021/11/26 02:56:10;;;;;;;23.43;14.40;;;7.60;99.90;;;;;;5111686;28;20483;-49
2021/11/26 02:58:37;;;;;;;19.73;12.93;;;7.70;99.90;;;;;;5111071;28;20483;-49
2021/11/26 03:01:05;;;;;;;22.53;13.33;;;7.60;99.90;;;;;;5113082;28;20409;-50
2021/11/26 03:03:32;;;;;;;19.37;13.33;;;7.90;99.90;;;;;;5112856;28;20438;-50
2021/11/26 03:06:01;;;;;;;26.43;13.20;;;7.70;99.90;;;;;;5113279;28;20486;-49
2021/11/26 03:08:29;;;;;;;21.07;12.63;;;7.70;99.90;;;;;;5112380;28;20485;-51
2021/11/26 03:10:56;;;;;;;25.73;13.40;;;7.60;99.90;;;;;;5112696;28;20916;-50
2021/11/26 03:13:25;;;;;;;21.77;12.63;;;8.10;99.90;;;;;;5113039;28;20523;-50
2021/11/26 03:15:53;;;;;;;19.70;12.83;;;7.50;99.90;;;;;;5112556;28;20867;-49
2021/11/26 03:18:21;;;;;;;25.30;13.80;;;7.60;99.90;;;;;;5112435;28;20426;-51
2021/11/26 03:20:50;;;;;;;18.70;12.40;;;7.50;99.90;;;;;;5112441;28;20826;-50
2021/11/26 03:23:19;;;;;;;23.90;12.37;;;7.80;99.90;;;;;;5113104;28;20486;-50
2021/11/26 03:25:46;;;;;;;26.87;13.93;;;7.70;99.90;;;;;;5112636;28;20537;-50
2021/11/26 03:28:14;;;;;;;23.10;13.33;;;7.70;99.90;;;;;;5112409;28;20481;-50
2021/11/26 03:30:44;;;;;;;25.60;13.80;;;7.60;99.90;;;;;;5111045;28;20876;-50
2021/11/26 03:33:13;;;;;;;22.03;13.40;;;7.60;99.90;;;;;;5111267;28;20776;-50
2021/11/26 03:35:40;;;;;;;21.47;13.53;;;7.90;99.90;;;;;;5111052;28;20457;-50
2021/11/26 03:38:08;;;;;;;20.13;13.23;;;7.70;99.90;;;;;;5112261;28;20459;-50
2021/11/26 03:40:35;;;;;;;23.80;15.00;;;7.70;99.90;;;;;;5112683;28;20999;-50
2021/11/26 03:43:02;;;;;;;23.10;14.53;;;7.70;99.90;;;;;;5112833;28;20992;-50
2021/11/26 03:45:31;;;;;;;21.67;13.67;;;7.60;99.90;;;;;;5110505;28;20467;-50
2021/11/26 03:47:59;;;;;;;23.03;12.70;;;7.90;99.90;;;;;;5110680;28;20778;-51
2021/11/26 03:50:28;;;;;;;18.93;13.17;;;7.60;99.90;;;;;;5112201;28;20439;-50
2021/11/26 03:52:55;;;;;;;23.20;14.10;;;7.70;99.90;;;;;;5112660;28;20427;-51
2021/11/26 03:55:27;;;;;;;20.03;13.07;;;7.90;99.90;;;;;;5110930;28;20868;-50
2021/11/26 03:57:55;;;;;;;24.67;15.10;;;7.90;99.90;;;;;;5111142;28;20461;-50
2021/11/26 04:00:23;;;;;;;22.50;13.83;;;7.70;99.90;;;;;;5112048;28;20451;-50
2021/11/26 04:02:49;;;;;;;26.73;13.57;;;7.70;99.90;;;;;;5102076;28;20492;-50
2021/11/26 04:05:19;;;;;;;20.53;13.93;;;7.80;99.90;;;;;;5093925;28;20486;-49
2021/11/26 04:07:48;;;;;;;21.37;12.30;;;7.70;99.90;;;;;;5093680;28;21041;-50
2021/11/26 04:10:17;;;;;;;22.20;13.23;;;7.80;99.90;;;;;;5112432;28;20440;-50
2021/11/26 04:12:45;;;;;;;19.10;13.63;;;7.80;99.90;;;;;;5116098;28;20436;-49
2021/11/26 04:15:13;;;;;;;21.00;12.43;;;7.30;99.90;;;;;;5116081;28;20970;-49
2021/11/26 04:17:41;;;;;;;18.37;13.30;;;7.80;99.90;;;;;;5115960;28;20468;-49
2021/11/26 04:20:10;;;;;;;19.30;12.57;;;7.90;99.90;;;;;;5115949;28;20447;-50
2021/11/26 04:22:38;;;;;;;20.17;11.80;;;7.80;99.90;;;;;;5098061;28;20474;-51
2021/11/26 04:25:08;;;;;;;23.87;12.03;;;7.80;99.90;;;;;;5115386;28;20977;-51
2021/11/26 04:27:34;;;;;;;27.73;14.10;;;7.60;99.90;;;;;;5115895;28;20976;-49
2021/11/26 04:30:01;;;;;;;25.03;13.67;;;7.80;99.90;;;;;;5115665;28;20533;-50
2021/11/26 04:32:28;;;;;;;26.73;12.87;;;7.90;99.90;;;;;;5116197;28;20932;-50
2021/11/26 04:34:55;;;;;;;22.30;12.83;;;7.80;99.90;;;;;;5116232;28;20422;-49
2021/11/26 04:37:22;;;;;;;24.10;12.50;;;7.70;99.90;;;;;;5116027;28;20920;-51
2021/11/26 04:39:50;;;;;;;18.70;12.50;;;7.70;99.90;;;;;;5115812;28;20406;-51
2021/11/26 04:42:16;;;;;;;19.17;12.17;;;7.60;99.90;;;;;;5115520;28;20455;-51
2021/11/26 04:44:43;;;;;;;26.10;11.80;;;7.90;99.90;;;;;;5115147;28;20430;-51
2021/11/26 04:47:10;;;;;;;20.30;11.70;;;7.50;99.90;;;;;;5114059;28;20482;-48
2021/11/26 04:49:36;;;;;;;21.73;11.57;;;7.60;99.90;;;;;;5115244;28;20430;-50
2021/11/26 04:52:03;;;;;;;16.67;10.63;;;7.80;99.90;;;;;;5115618;28;20779;-50
2021/11/26 04:54:30;;;;;;;17.47;9.87;;;7.90;99.90;;;;;;5132262;22;20519;-49
2021/11/26 04:56:58;;;;;;;17.60;10.70;;;7.50;99.90;;;;;;5094387;28;20427;-49
2021/11/26 04:59:24;;;;;;;17.63;10.00;;;7.30;99.90;;;;;;5094159;28;20433;-49
2021/11/26 05:01:51;;;;;;;18.03;10.90;;;7.10;99.90;;;;;;5094246;28;20410;-48
2021/11/26 05:04:18;;;;;;;17.13;11.27;;;7.70;99.90;;;;;;5090741;28;20475;-48
2021/11/26 05:06:45;;;;;;;19.07;11.30;;;7.60;99.90;;;;;;5074011;28;20809;-48
2021/11/26 05:09:12;;;;;;;25.90;12.83;;;7.30;99.90;;;;;;5073838;28;20438;-49
2021/11/26 05:11:39;;;;;;;22.43;11.87;;;7.80;99.90;;;;;;5073709;28;20430;-49
2021/11/26 05:14:08;;;;;;;20.77;11.23;;;7.70;99.90;;;;;;5073728;28;20454;-49
2021/11/26 05:16:35;;;;;;;14.60;10.80;;;7.30;99.90;;;;;;5073610;28;20448;-48
2021/11/26 05:19:02;;;;;;;21.83;12.00;;;7.60;99.90;;;;;;5073543;28;20432;-49
2021/11/26 05:21:29;;;;;;;22.37;12.10;;;7.60;99.90;;;;;;5077550;28;20527;-49
2021/11/26 05:23:56;;;;;;;22.77;12.40;;;7.60;99.90;;;;;;5073546;28;20422;-49
2021/11/26 05:26:22;;;;;;;22.83;11.67;;;7.70;99.90;;;;;;5087366;28;20502;-49
2021/11/26 05:28:49;;;;;;;23.13;10.60;;;7.70;99.90;;;;;;5093494;28;20442;-50
2021/11/26 05:31:17;;;;;;;23.63;11.77;;;7.80;99.90;;;;;;5093809;28;20441;-50
2021/11/26 05:33:43;;;;;;;19.53;11.33;;;8.10;99.90;;;;;;5093509;28;20899;-49
2021/11/26 05:36:10;;;;;;;21.20;10.77;;;8.00;99.90;;;;;;5093474;28;20445;-50
2021/11/26 05:38:36;;;;;;;23.73;11.80;;;7.70;99.90;;;;;;5093323;28;20410;-49
2021/11/26 05:41:03;;;;;;;24.97;12.23;;;7.70;99.90;;;;;;5093595;28;20421;-48
2021/11/26 05:43:30;;;;;;;23.47;10.83;;;8.30;99.90;;;;;;5093595;28;20434;-49
2021/11/26 05:45:56;;;;;;;24.63;11.53;;;7.50;99.90;;;;;;5093269;28;20462;-49
2021/11/26 05:48:24;;;;;;;17.90;11.20;;;7.70;99.90;;;;;;5074798;28;20451;-49
2021/11/26 05:50:51;;;;;;;15.80;9.63;;;7.70;99.90;;;;;;5093477;28;21012;-49
2021/11/26 05:53:18;;;;;;;19.87;10.80;;;7.70;99.90;;;;;;5093213;28;20442;-49
2021/11/26 05:55:44;;;;;;;19.20;10.27;;;7.70;99.90;;;;;;5093220;28;20468;-49
2021/11/26 05:58:11;;;;;;;22.20;10.37;;;7.20;99.90;;;;;;5092751;28;20438;-50
2021/11/26 06:00:38;;;;;;;22.03;12.40;;;7.80;99.90;;;;;;5093397;28;20445;-49
2021/11/26 06:03:05;;;;;;;24.77;12.47;;;7.70;99.90;;;;;;5080342;28;20938;-50
2021/11/26 06:05:33;;;;;;;20.37;12.50;;;8.20;99.90;;;;;;5055145;28;20471;-49
2021/11/26 06:08:00;;;;;;;22.40;13.20;;;8.20;99.90;;;;;;5072354;28;20444;-49
2021/11/26 06:10:26;;;;;;;25.03;14.97;;;7.60;99.90;;;;;;5073002;28;20441;-49
2021/11/26 06:12:53;;;;;;;23.70;13.90;;;7.90;99.90;;;;;;5072560;28;20460;-49
2021/11/26 06:15:22;;;;;;;30.10;16.40;;;7.80;99.90;;;;;;5072424;28;20442;-50
2021/11/26 06:17:49;;;;;;;17.80;13.97;;;7.70;99.90;;;;;;5072178;28;20526;-48
2021/11/26 06:20:16;;;;;;;18.93;13.27;;;7.70;99.90;;;;;;5072235;28;20413;-50
2021/11/26 06:22:45;;;;;;;20.83;13.30;;;7.60;99.90;;;;;;5072232;28;20922;-49
2021/11/26 06:25:14;;;;;;;23.60;12.87;;;7.40;99.90;;;;;;5076106;28;20467;-49
2021/11/26 06:27:41;;;;;;;25.30;14.03;;;8.00;99.90;;;;;;5091577;28;20484;-49
2021/11/26 06:30:10;;;;;;;20.23;12.43;;;8.00;99.90;;;;;;5092107;28;20407;-49
2021/11/26 06:32:37;;;;;;;21.57;13.50;;;7.60;99.90;;;;;;5092741;28;20828;-49
2021/11/26 06:35:04;;;;;;;20.30;14.43;;;7.60;99.90;;;;;;5091646;28;20451;-50
2021/11/26 06:37:31;;;;;;;25.30;13.23;;;7.50;99.90;;;;;;5091599;28;20771;-50
2021/11/26 06:39:59;;;;;;;23.63;13.07;;;8.10;99.90;;;;;;5091605;28;20414;-50
2021/11/26 06:42:25;;;;;;;27.63;12.40;;;8.00;99.90;;;;;;5092146;28;20447;-48
2021/11/26 06:44:52;;;;;;;20.37;12.17;;;7.50;99.90;;;;;;5091910;28;20859;-49
2021/11/26 06:47:20;;;;;;;20.07;12.37;;;8.00;99.90;;;;;;5091406;28;20795;-49
2021/11/26 06:49:47;;;;;;;17.53;10.70;;;7.40;99.90;;;;;;5091618;28;20407;-50
2021/11/26 06:52:14;;;;;;;21.77;13.37;;;7.70;99.90;;;;;;5091769;28;20443;-50
2021/11/26 06:54:40;;;;;;;22.40;11.30;;;7.70;99.90;;;;;;5092082;28;20880;-50
2021/11/26 06:57:08;;;;;;;21.43;11.50;;;7.40;99.90;;;;;;5092740;28;20406;-49
2021/11/26 06:59:35;;;;;;;17.30;10.83;;;8.00;99.90;;;;;;5092072;28;20970;-49
2021/11/26 07:02:01;;;;;;;16.73;11.10;;;7.10;99.90;;;;;;5086742;28;20437;-49
2021/11/26 07:04:29;;;;;;;20.93;11.33;;;7.50;99.90;;;;;;5071643;28;20443;-50
2021/11/26 07:06:55;;;;;;;24.80;10.40;;;8.00;99.90;;;;;;5071294;28;20482;-50
2021/11/26 07:09:22;;;;;;;29.40;13.80;;;7.50;99.90;;;;;;5071570;28;20791;-50
2021/11/26 07:11:49;;;;;;;22.57;12.00;;;7.60;99.90;;;;;;5070939;28;20407;-50
2021/11/26 07:14:17;;;;;;;29.23;14.83;;;7.50;99.90;;;;;;5071372;28;20449;-50
2021/11/26 07:16:44;;;;;;;22.93;11.00;;;7.70;99.90;;;;;;5070916;28;20429;-50
2021/11/26 07:19:10;;;;;;;20.13;11.37;;;7.70;99.90;;;;;;5070668;28;20468;-48
2021/11/26 07:21:37;;;;;;;20.23;11.77;;;7.60;99.90;;;;;;5071448;28;20445;-50
2021/11/26 07:24:04;;;;;;;24.93;12.07;;;7.50;99.90;;;;;;5072315;28;20408;-49
2021/11/26 07:26:31;;;;;;;23.43;12.63;;;7.70;99.90;;;;;;5068023;28;20449;-49
2021/11/26 07:28:57;;;;;;;19.57;9.73;;;7.70;99.90;;;;;;5090740;28;20438;-49
2021/11/26 07:31:25;;;;;;;20.30;11.13;;;7.10;99.90;;;;;;5091104;28;20447;-49
2021/11/26 07:33:52;;;;;;;20.53;12.10;;;7.70;99.90;;;;;;5090839;28;20436;-50
2021/11/26 07:36:19;;;;;;;19.67;11.47;;;7.90;99.90;;;;;;5073165;28;20455;-49
2021/11/26 07:38:45;;;;;;;21.63;11.23;;;7.50;99.90;;;;;;5090754;28;20942;-49
2021/11/26 07:41:12;;;;;;;19.53;11.20;;;7.70;99.90;;;;;;5091424;28;20443;-49
2021/11/26 07:43:38;;;;;;;22.73;12.20;;;7.90;99.90;;;;;;5072989;28;20437;-49
2021/11/26 07:46:05;;;;;;;29.00;15.77;;;7.70;99.90;;;;;;5092551;28;20459;-48
2021/11/26 07:48:33;;;;;;;28.37;14.03;;;7.70;99.90;;;;;;5095549;28;20813;-48
2021/11/26 07:51:00;;;;;;;26.40;12.83;;;7.70;99.90;;;;;;5096235;28;20460;-49
2021/11/26 07:53:27;;;;;;;29.93;16.70;;;7.90;99.90;;;;;;5095914;28;20436;-50
2021/11/26 07:55:53;;;;;;;24.23;10.73;;;7.30;99.90;;;;;;5095751;28;20555;-48
2021/11/26 07:58:20;;;;;;;20.70;11.30;;;7.80;99.90;;;;;;5095032;28;20434;-49
2021/11/26 08:00:46;;;;;;;21.17;11.23;;;7.90;99.90;;;;;;5095242;28;20924;-49
2021/11/26 08:03:15;;;;;;;18.37;11.40;;;7.90;99.90;;;;;;5062488;28;20994;-49
2021/11/26 08:05:43;;;;;;;22.63;11.23;;;8.20;99.90;;;;;;5075090;28;20475;-49
2021/11/26 08:08:10;;;;;;;23.33;10.17;;;7.60;99.90;;;;;;5073953;28;20981;-49
2021/11/26 08:10:37;;;;;;;16.70;10.10;;;8.10;99.90;;;;;;5056705;28;20455;-49
2021/11/26 08:13:05;;;;;;;21.17;11.13;;;7.80;99.90;;;;;;5074345;28;20496;-49
2021/11/26 08:15:31;;;;;;;24.60;11.60;;;7.70;99.90;;;;;;5074609;28;20430;-49
2021/11/26 08:17:58;;;;;;;21.63;10.87;;;7.80;99.90;;;;;;5074152;28;20456;-49
2021/11/26 08:20:25;;;;;;;23.90;11.77;;;8.00;99.90;;;;;;5074798;28;20947;-49
2021/11/26 08:22:54;;;;;;;20.30;10.90;;;8.00;99.90;;;;;;5056203;28;20455;-49
2021/11/26 08:25:23;;;;;;;24.80;11.20;;;8.40;99.90;;;;;;5079428;28;20567;-48
2021/11/26 08:27:51;;;;;;;29.23;13.83;;;7.90;99.90;;;;;;5093890;28;20952;-50
2021/11/26 08:30:19;;;;;;;25.40;11.47;;;8.40;99.90;;;;;;5094959;28;20934;-49
2021/11/26 08:32:46;;;;;;;21.20;11.40;;;8.00;99.90;;;;;;5094408;28;20407;-49
2021/11/26 08:35:13;;;;;;;18.23;10.13;;;8.20;99.90;;;;;;5094163;28;20489;-49
2021/11/26 08:37:40;;;;;;;17.73;10.27;;;7.70;99.90;;;;;;5094067;28;20927;-49
2021/11/26 08:40:10;;;;;;;23.53;12.63;;;8.00;99.90;;;;;;5094591;28;20407;-49
2021/11/26 08:42:37;;;;;;;21.33;11.13;;;8.00;99.90;;;;;;5094071;28;20407;-49
2021/11/26 08:45:06;;;;;;;16.33;9.97;;;8.40;99.90;;;;;;5093640;28;20431;-50
2021/11/26 08:47:32;;;;;;;17.47;9.53;;;8.20;99.90;;;;;;5072735;28;20833;-49
2021/11/26 08:50:00;;;;;;;14.30;9.80;;;8.30;99.90;;;;;;5059938;28;20442;-49
2021/11/26 08:52:27;;;;;;;20.67;9.90;;;8.90;99.90;;;;;;5069997;28;20455;-49
2021/11/26 08:54:54;;;;;;;14.63;9.00;;;8.80;99.90;;;;;;5073006;28;20469;-50
2021/11/26 08:57:27;;;;;;;14.30;9.80;;;8.40;99.90;;;;;;5035647;28;20420;-50
2021/11/26 08:59:53;;;;;;;20.83;10.30;;;8.50;99.90;;;;;;5052815;28;20442;-50
2021/11/26 09:02:21;;;;;;;19.97;11.33;;;8.60;99.90;;;;;;5060757;28;20434;-50
2021/11/26 09:04:48;;;;;;;17.50;10.50;;;8.40;99.90;;;;;;5069767;28;20457;-50
2021/11/26 09:07:14;;;;;;;15.53;10.80;;;8.60;99.90;;;;;;5073456;28;20485;-50
2021/11/26 09:09:42;;;;;;;15.93;10.00;;;8.40;99.90;;;;;;5071912;28;20420;-50
2021/11/26 09:12:09;;;;;;;16.67;10.27;;;8.70;99.90;;;;;;5073302;28;20442;-49
2021/11/26 09:14:37;;;;;;;19.97;9.77;;;8.60;99.90;;;;;;5073701;28;20453;-49
2021/11/26 09:17:04;;;;;;;15.23;10.43;;;9.10;99.90;;;;;;5073438;28;20438;-49
2021/11/26 09:19:30;;;;;;;26.17;11.43;;;8.70;99.90;;;;;;5073020;28;20456;-49
2021/11/26 09:21:57;;;;;;;21.43;11.57;;;8.60;99.90;;;;;;5060359;28;20452;-50
2021/11/26 09:24:24;;;;;;;20.27;10.60;;;8.80;99.90;;;;;;5053152;28;20453;-54
2021/11/26 09:26:50;;;;;;;23.73;11.10;;;8.40;99.90;;;;;;5088728;28;20469;-48
2021/11/26 09:29:17;;;;;;;21.73;10.73;;;9.20;99.90;;;;;;5092807;28;20488;-49
2021/11/26 09:31:45;;;;;;;19.80;11.70;;;8.80;99.90;;;;;;5093353;28;20984;-49
2021/11/26 09:34:12;;;;;;;23.27;11.10;;;9.30;99.90;;;;;;5093429;28;20414;-49
2021/11/26 09:36:38;;;;;;;21.80;11.57;;;8.70;99.90;;;;;;5093220;28;20428;-50
2021/11/26 09:39:06;;;;;;;20.33;11.20;;;9.10;99.90;;;;;;5092633;28;20421;-50
2021/11/26 09:41:33;;;;;;;17.50;9.87;;;8.50;99.90;;;;;;5093450;28;20436;-49
2021/11/26 09:44:02;;;;;;;15.60;11.40;;;9.00;99.90;;;;;;5093150;28;20412;-49
2021/11/26 09:46:30;;;;;;;21.53;11.90;;;9.00;99.90;;;;;;5093227;28;20408;-50
2021/11/26 09:48:58;;;;;;;22.07;11.40;;;9.20;99.90;;;;;;5072762;28;20512;-50
2021/11/26 09:51:25;;;;;;;26.90;12.67;;;8.80;99.90;;;;;;5073207;28;20772;-49
2021/11/26 09:53:52;;;;;;;20.53;10.13;;;9.10;99.90;;;;;;5073074;28;20442;-48
2021/11/26 09:56:19;;;;;;;22.77;10.50;;;9.40;99.90;;;;;;5039694;28;20462;-48
2021/11/26 09:58:45;;;;;;;21.10;11.63;;;9.40;99.90;;;;;;5052521;28;20435;-55
2021/11/26 10:01:13;;;;;;;18.23;11.70;;;8.60;99.90;;;;;;5051675;28;20901;-49
2021/11/26 10:03:42;;;;;;;27.60;13.10;;;9.30;99.90;;;;;;5070310;28;20943;-49
2021/11/26 10:06:24;;;;;;;19.97;10.77;;;9.50;99.90;;;;;;5057985;28;20238;-52
2021/11/26 10:09:00;;;;;;;19.93;11.40;;;9.30;99.90;;;;;;5051127;28;20482;-51
2021/11/26 10:11:28;;;;;;;18.50;10.73;;;8.80;99.90;;;;;;5052352;28;20430;-51
2021/11/26 10:13:56;;;;;;;22.83;9.93;;;9.10;99.90;;;;;;5052309;28;20455;-50
2021/11/26 10:16:23;;;;;;;17.40;10.57;;;9.20;99.90;;;;;;5034220;28;20929;-49
2021/11/26 10:18:54;;;;;;;20.15;11.60;;;8.90;99.80;;;;;;5051789;28;20473;-49
2021/11/26 10:21:26;;;;;;;20.57;11.50;;;9.80;99.90;;;;;;5052135;28;20646;-49
2021/11/26 10:23:53;;;;;;;15.67;10.67;;;9.30;99.70;;;;;;5052425;28;20490;-48
2021/11/26 10:26:22;;;;;;;18.43;11.03;;;9.30;99.80;;;;;;5079328;28;20448;-48
2021/11/26 10:28:52;;;;;;;20.30;11.07;;;9.60;99.90;;;;;;5091987;28;20573;-49
2021/11/26 10:31:25;;;;;;;24.37;11.23;;;9.80;99.90;;;;;;5092403;28;20925;-50
2021/11/26 10:33:54;;;;;;;19.05;12.40;;;9.80;99.80;;;;;;5092171;28;20421;-49
2021/11/26 10:36:24;;;;;;;19.87;11.80;;;9.50;99.90;;;;;;5092071;28;20585;-48
2021/11/26 10:38:51;;;;;;;19.73;12.50;;;9.30;99.80;;;;;;5092002;28;20515;-49
2021/11/26 10:41:25;;;;;;;21.60;13.00;;;9.50;99.90;;;;;;5074242;28;20441;-50
2021/11/26 10:43:55;;;;;;;20.50;11.80;;;9.60;99.90;;;;;;5091896;28;20436;-49
2021/11/26 11:00:24;;;;;;;22.60;15.53;;;9.50;99.90;;;;;;5031973;28;20518;-53
2021/11/26 11:02:54;;;;;;;23.23;15.70;;;9.40;99.90;;;;;;5020393;28;20458;-53
2021/11/26 11:05:28;;;;;;;25.80;15.60;;;9.80;99.90;;;;;;5066623;28;20459;-53
2021/11/26 11:07:58;;;;;;;22.83;16.83;;;9.50;99.90;;;;;;5070209;28;20701;-54
2021/11/26 11:10:28;;;;;;;24.57;15.63;;;9.50;99.90;;;;;;5070891;28;20440;-53
2021/11/26 11:12:57;;;;;;;22.53;15.77;;;9.50;99.90;;;;;;5071165;28;20475;-53
2021/11/26 11:15:24;;;;;;;25.20;17.03;;;9.80;99.90;;;;;;5070844;28;20460;-53
2021/11/26 11:17:51;;;;;;;20.77;15.43;;;9.00;99.90;;;;;;5070289;28;20430;-53
2021/11/26 11:20:19;;;;;;;23.20;16.60;;;9.60;99.90;;;;;;5070453;28;20400;-53
2021/11/26 11:22:46;;;;;;;21.03;14.53;;;9.90;99.90;;;;;;5070791;28;20434;-53
2021/11/26 11:25:21;;;;;;;25.93;17.00;;;9.60;99.90;;;;;;5074743;28;20431;-53
2021/11/26 11:27:49;;;;;;;26.45;19.23;;;9.30;99.90;;;;;;5089358;28;20429;-54
2021/11/26 11:30:16;;;;;;;29.00;18.47;;;9.20;99.90;;;;;;5090733;28;20420;-53
2021/11/26 11:32:43;;;;;;;25.37;15.40;;;9.20;99.90;;;;;;5090955;28;20829;-54
2021/11/26 11:35:11;;;;;;;25.13;17.77;;;9.30;99.90;;;;;;5089721;28;20435;-54
2021/11/26 11:37:39;;;;;;;23.63;16.03;;;10.00;99.40;;;;;;5090754;28;20519;-55
2021/11/26 11:40:09;;;;;;;25.37;14.93;;;10.00;98.90;;;;;;5090812;28;20445;-54
2021/11/26 11:42:39;;;;;;;19.90;15.37;;;10.00;99.20;;;;;;5072627;28;20449;-54
2021/11/26 11:45:10;;;;;;;27.17;16.23;;;9.40;99.60;;;;;;5090939;28;20842;-53
2021/11/26 11:47:43;;;;;;;23.77;16.63;;;9.70;99.80;;;;;;5081830;28;20420;-53
2021/11/26 11:50:12;;;;;;;27.20;16.73;;;10.10;99.30;;;;;;5070911;28;20426;-54
2021/11/26 11:52:44;;;;;;;22.60;16.10;;;9.70;99.70;;;;;;5070888;28;20430;-53
2021/11/26 11:55:26;;;;;;;23.83;17.65;;;10.00;99.20;;;;;;5069226;28;20529;-53
2021/11/26 11:57:58;;;;;;;21.47;15.73;;;9.90;99.40;;;;;;5069318;28;20664;-54
2021/11/26 12:00:34;;;;;;;21.37;15.70;;;9.80;99.30;;;;;;5070030;28;20472;-54
2021/11/26 12:03:08;;;;;;;30.50;16.07;;;9.40;99.10;;;;;;5069437;28;20438;-54
2021/11/26 12:05:35;;;;;;;26.47;16.50;;;9.90;99.30;;;;;;5070385;28;20435;-54
2021/11/26 12:08:07;;;;;;;21.80;14.70;;;9.60;99.10;;;;;;5069511;28;20447;-53
2021/11/26 12:10:50;;;;;;;21.27;14.60;;;9.90;99.10;;;;;;5069868;28;20444;-54
2021/11/26 12:13:36;;;;;;;27.70;14.33;;;9.80;99.00;;;;;;5069724;28;20449;-54
2021/11/26 12:16:11;;;;;;;25.10;15.60;;;9.70;99.00;;;;;;5069700;28;20489;-53
2021/11/26 12:18:41;;;;;;;26.00;14.77;;;9.70;99.10;;;;;;5068861;28;20429;-53
2021/11/26 12:21:08;;;;;;;23.83;17.27;;;9.70;99.20;;;;;;5068566;28;20422;-53
2021/11/26 12:23:48;;;;;;;31.23;16.87;;;9.80;99.00;;;;;;5069492;28;20765;-54
2021/11/26 12:26:18;;;;;;;30.23;16.63;;;9.90;98.90;;;;;;5081884;28;20450;-53
2021/11/26 12:28:50;;;;;;;25.33;17.10;;;10.00;98.40;;;;;;5089288;28;20467;-53
2021/11/26 12:31:20;;;;;;;24.55;18.48;;;9.50;98.90;;;;;;5088197;28;20897;-54
2021/11/26 12:33:58;;;;;;;24.47;17.30;;;9.70;98.80;;;;;;5093558;28;20218;-53
2021/11/26 12:36:37;;;;;;;27.17;16.98;;;9.60;98.80;;;;;;5092046;28;20425;-52
2021/11/26 12:39:06;;;;;;;21.70;14.03;;;9.90;98.20;;;;;;5093128;28;20198;-53
2021/11/26 12:41:36;;;;;;;18.77;13.67;;;9.60;98.30;;;;;;5093843;28;20507;-54
2021/11/26 12:44:06;;;;;;;20.43;14.00;;;8.80;98.20;;;;;;5093691;28;20443;-53
2021/11/26 12:46:34;;;;;;;19.50;13.83;;;9.30;98.60;;;;;;5094254;28;20535;-54
2021/11/26 12:52:06;;;;;;;23.07;13.90;;;9.50;99.00;;;;;;5053124;28;20437;-55
2021/11/26 12:54:35;;;;;;;19.57;13.90;;;8.70;98.70;;;;;;5053009;28;20556;-54
2021/11/26 12:57:04;;;;;;;25.00;13.10;;;9.60;99.10;;;;;;5073576;28;20930;-54
2021/11/26 12:59:36;;;;;;;21.50;14.17;;;9.40;99.00;;;;;;5073354;28;20430;-54